Terminal Aerodrome Forecast
Issued by NWS

Current Version | Previous Version | Text Only | Print | Product List | Glossary Off
Versions: 1 2 3 4 5 6 7 8 9 10 11 12 13 14 15 16 17 18 19 20 21 22 23

252
FTUS41 KILN 212323
TAFLUK
TAF
KLUK 212323Z 2200/2224 35010KT P6SM VCSH SCT050 OVC070
     FM220500 36014KT P6SM SCT250
     FM221400 04010KT P6SM SKC
     FM222300 04007KT P6SM SCT250=

USA.gov is the U.S. government's official web portal to all federal, state and local government web resources and services.